Reilly, Pennsylvania
Current Conditions -  °F | °C
As of 4:58 PM on Sunday 21 Dec 2014 (Local Time) from KMUI Reporting Station
Few Clouds Few Clouds  
Wind Chill: 31°   Ceiling: Unl
Heat Index: 31°   Visibility: 10mi
Dew Point: 22°   Wind: 1mph
Humidity: 68%   Direction: 310°NW
Pressure: 30.31"   Gusts: NA
Location:  40.6756°N, 76.3278°W
Report Text: KMUI 212158Z AUTO 31001KT 10SM FEW025 00/M06 A3031 RMK AO2 SLP272 T10051057
Loading
Personal Weather Stations






























Interactive Weather Map New forecast layout! Learn more

10-Day Weather Forecast

Advertisements
Track Severe Weather on mobile